Time;durP1;ratioP1;P1;durP2;ratioP2;P2;SDS_P1;SDS_P2;PMS_P1;PMS_P2;Temp;Humidity;BMP_temperature;BMP_pressure;BME280_temperature;BME280_humidity;BME280_pressure;Samples;Min_cycle;Max_cycle;Signal;HPM_P1;HPM_P2
2022/07/28 00:00:11;;;;;;;9.40;3.25;;;;;;;;;;5113432;28;20037;-69
2022/07/28 00:02:37;;;;;;;9.60;3.00;;;;;;;;;;5112012;28;20031;-69
2022/07/28 00:05:03;;;;;;;9.07;3.83;;;;;;;;;;5111674;28;20540;-69
2022/07/28 00:07:30;;;;;;;6.20;2.97;;;;;;;;;;5112780;28;20058;-68
2022/07/28 00:09:56;;;;;;;10.32;3.22;;;;;;;;;;5111519;28;20074;-68
2022/07/28 00:12:22;;;;;;;11.07;3.08;;;;;;;;;;5110718;28;20050;-68
2022/07/28 00:14:48;;;;;;;13.45;3.00;;;;;;;;;;5110670;28;20028;-67
2022/07/28 00:17:14;;;;;;;9.48;3.00;;;;;;;;;;5092557;28;20172;-69
2022/07/28 00:19:40;;;;;;;6.38;3.10;;;;;;;;;;5110529;28;20023;-69
2022/07/28 00:22:06;;;;;;;7.10;3.20;;;;;;;;;;5110507;28;20080;-69
2022/07/28 00:24:32;;;;;;;7.50;3.17;;;;;;;;;;5110621;28;20028;-68
2022/07/28 00:26:59;;;;;;;6.10;2.75;;;;;;;;;;5110846;28;20085;-69
2022/07/28 00:29:25;;;;;;;7.55;3.42;;;;;;;;;;5110412;28;20031;-68
2022/07/28 00:31:51;;;;;;;7.15;3.03;;;;;;;;;;5091762;28;20020;-69
2022/07/28 00:34:17;;;;;;;9.52;2.92;;;;;;;;;;5110112;28;20031;-68
2022/07/28 00:36:43;;;;;;;6.72;3.05;;;;;;;;;;5108845;28;20032;-69
2022/07/28 00:39:09;;;;;;;7.13;3.22;;;;;;;;;;5110370;28;20050;-68
2022/07/28 00:41:35;;;;;;;13.80;3.70;;;;;;;;;;5110323;28;20036;-69
2022/07/28 00:44:01;;;;;;;4.70;2.63;;;;;;;;;;5092286;28;20096;-67
2022/07/28 00:46:27;;;;;;;7.47;3.08;;;;;;;;;;5111532;28;20092;-68
2022/07/28 00:48:54;;;;;;;7.30;3.00;;;;;;;;;;5111893;28;20027;-68
2022/07/28 00:51:21;;;;;;;7.22;3.10;;;;;;;;;;5112483;28;20084;-68
2022/07/28 00:53:47;;;;;;;7.55;3.38;;;;;;;;;;5112282;28;20038;-68
2022/07/28 00:56:14;;;;;;;7.35;3.40;;;;;;;;;;5112127;28;20473;-69
2022/07/28 00:58:40;;;;;;;7.43;3.17;;;;;;;;;;5094739;28;20106;-70
2022/07/28 01:01:07;;;;;;;9.55;2.88;;;;;;;;;;5112668;28;20028;-69
2022/07/28 01:03:34;;;;;;;11.73;3.67;;;;;;;;;;5111593;28;20028;-69
2022/07/28 01:06:19;;;;;;;15.38;3.10;;;;;;;;;;5113637;28;20034;-69
2022/07/28 01:08:45;;;;;;;10.98;3.17;;;;;;;;;;5093516;28;20398;-69
2022/07/28 01:11:21;;;;;;;9.30;3.20;;;;;;;;;;5111193;28;20107;-68
2022/07/28 01:13:55;;;;;;;11.35;3.05;;;;;;;;;;5110129;28;20420;-68
2022/07/28 01:16:21;;;;;;;9.52;3.15;;;;;;;;;;5111541;28;20027;-68
2022/07/28 01:18:49;;;;;;;6.55;2.90;;;;;;;;;;5114320;28;20118;-68
2022/07/28 01:21:17;;;;;;;9.25;3.20;;;;;;;;;;5114365;28;20491;-68
2022/07/28 01:23:58;;;;;;;9.65;3.13;;;;;;;;;;5113784;28;20024;-70
2022/07/28 01:26:38;;;;;;;9.30;3.20;;;;;;;;;;5113964;28;20024;-69
2022/07/28 01:29:10;;;;;;;9.05;3.50;;;;;;;;;;5113953;28;20123;-68
2022/07/28 01:31:39;;;;;;;8.13;3.40;;;;;;;;;;5113712;28;20027;-69
2022/07/28 01:34:07;;;;;;;6.47;3.22;;;;;;;;;;5113608;28;20031;-68
2022/07/28 01:36:38;;;;;;;11.90;3.70;;;;;;;;;;5095463;28;20030;-69
2022/07/28 01:39:04;;;;;;;10.60;3.78;;;;;;;;;;5113871;28;20100;-68
2022/07/28 01:41:32;;;;;;;8.38;3.58;;;;;;;;;;5095508;28;20392;-68
2022/07/28 01:44:00;;;;;;;10.15;3.53;;;;;;;;;;5113502;28;20047;-69
2022/07/28 01:46:26;;;;;;;11.50;4.10;;;;;;;;;;5096090;28;20016;-69
2022/07/28 01:48:53;;;;;;;7.05;3.78;;;;;;;;;;5114442;28;20024;-68
2022/07/28 01:51:20;;;;;;;7.22;3.65;;;;;;;;;;5114401;28;20023;-68
2022/07/28 01:53:47;;;;;;;11.95;4.05;;;;;;;;;;5114867;28;20020;-69
2022/07/28 01:56:14;;;;;;;11.60;4.00;;;;;;;;;;5097020;28;20504;-68
2022/07/28 01:58:42;;;;;;;10.10;3.72;;;;;;;;;;5115718;28;20047;-68
2022/07/28 02:01:10;;;;;;;5.13;3.10;;;;;;;;;;5114902;28;20332;-68
2022/07/28 02:03:37;;;;;;;7.78;3.75;;;;;;;;;;5115012;28;20500;-68
2022/07/28 02:06:04;;;;;;;7.65;3.83;;;;;;;;;;5114207;28;20032;-69
2022/07/28 02:08:31;;;;;;;7.97;3.50;;;;;;;;;;5114488;28;20026;-69
2022/07/28 02:13:43;;;;;;;7.85;3.72;;;;;;;;;;5098411;28;20127;-69
2022/07/28 02:16:10;;;;;;;6.78;3.60;;;;;;;;;;5095447;28;20027;-68
2022/07/28 02:18:37;;;;;;;9.05;4.00;;;;;;;;;;5112876;28;20044;-68
2022/07/28 02:21:04;;;;;;;6.95;3.78;;;;;;;;;;5094997;28;20016;-68
2022/07/28 02:23:30;;;;;;;10.55;3.90;;;;;;;;;;5113459;28;20051;-68
2022/07/28 02:25:58;;;;;;;11.55;4.10;;;;;;;;;;5113467;28;20093;-68
2022/07/28 02:28:27;;;;;;;13.93;4.18;;;;;;;;;;5112371;28;20023;-68
2022/07/28 02:31:06;;;;;;;5.82;3.85;;;;;;;;;;5113006;28;20023;-69
2022/07/28 02:33:33;;;;;;;8.38;3.70;;;;;;;;;;5112813;28;20028;-68
2022/07/28 02:36:04;;;;;;;11.57;3.55;;;;;;;;;;5112460;28;20094;-68
2022/07/28 02:38:33;;;;;;;8.15;3.45;;;;;;;;;;5112528;28;20024;-68
2022/07/28 02:41:04;;;;;;;8.70;3.28;;;;;;;;;;5112785;28;20492;-68
2022/07/28 02:43:30;;;;;;;;;;;;;;;;;;5113458;28;20470;-68
2022/07/28 02:46:00;;;;;;;7.32;3.47;;;;;;;;;;5113736;28;20267;-69
2022/07/28 02:48:28;;;;;;;11.50;5.13;;;;;;;;;;5094919;28;20026;-69
2022/07/28 02:50:55;;;;;;;11.68;3.70;;;;;;;;;;5113654;28;20019;-68
2022/07/28 02:53:22;;;;;;;6.93;3.95;;;;;;;;;;5114718;28;20106;-68
2022/07/28 02:55:48;;;;;;;8.27;3.55;;;;;;;;;;5114347;28;20093;-71
2022/07/28 02:58:19;;;;;;;8.73;3.80;;;;;;;;;;5113545;28;20034;-68
2022/07/28 03:00:46;;;;;;;12.70;4.00;;;;;;;;;;5114340;28;20028;-68
2022/07/28 03:03:12;;;;;;;7.68;4.18;;;;;;;;;;5096116;28;20032;-68
2022/07/28 03:05:40;;;;;;;7.28;3.28;;;;;;;;;;5113132;28;20130;-67
2022/07/28 03:08:06;;;;;;;9.93;3.80;;;;;;;;;;5112118;28;20164;-67
2022/07/28 03:10:32;;;;;;;11.57;3.70;;;;;;;;;;5111882;28;20096;-68
2022/07/28 03:12:59;;;;;;;10.38;4.82;;;;;;;;;;5093884;28;20035;-68
2022/07/28 03:15:25;;;;;;;7.07;3.65;;;;;;;;;;5111542;28;20062;-69
2022/07/28 03:17:51;;;;;;;10.55;3.90;;;;;;;;;;5111363;28;20027;-68
2022/07/28 03:20:17;;;;;;;12.05;3.85;;;;;;;;;;5093991;28;20024;-68
2022/07/28 03:22:46;;;;;;;10.63;3.80;;;;;;;;;;5112111;28;20104;-68
2022/07/28 03:25:35;;;;;;;8.55;3.65;;;;;;;;;;5093538;28;20404;-69
2022/07/28 03:28:02;;;;;;;9.60;3.50;;;;;;;;;;5100981;28;20039;-69
2022/07/28 03:30:32;;;;;;;7.88;3.92;;;;;;;;;;5112216;28;20468;-69
2022/07/28 03:33:00;;;;;;;7.72;3.50;;;;;;;;;;5110193;28;20500;-69
2022/07/28 03:35:26;;;;;;;9.32;4.05;;;;;;;;;;5111883;28;20052;-69
2022/07/28 03:37:58;;;;;;;13.13;3.72;;;;;;;;;;5112057;28;20032;-68
2022/07/28 03:40:25;;;;;;;7.50;3.80;;;;;;;;;;5100480;28;20031;-69
2022/07/28 03:42:52;;;;;;;11.50;4.43;;;;;;;;;;5112790;28;20051;-68
2022/07/28 03:45:18;;;;;;;10.43;3.90;;;;;;;;;;5113054;28;20055;-68
2022/07/28 03:47:53;;;;;;;10.15;4.32;;;;;;;;;;5113024;28;20015;-68
2022/07/28 03:50:22;;;;;;;8.35;3.78;;;;;;;;;;5112430;28;20076;-68
2022/07/28 03:52:48;;;;;;;11.23;3.90;;;;;;;;;;5112245;28;20028;-69
2022/07/28 03:55:15;;;;;;;11.35;4.55;;;;;;;;;;5113031;28;20039;-69
2022/07/28 03:57:41;;;;;;;8.07;4.38;;;;;;;;;;5112869;28;20027;-69
2022/07/28 04:00:08;;;;;;;7.65;4.20;;;;;;;;;;5111698;28;20161;-68
2022/07/28 04:02:34;;;;;;;10.73;3.90;;;;;;;;;;5111331;28;20046;-69
2022/07/28 04:05:00;;;;;;;7.70;4.00;;;;;;;;;;5110893;28;20027;-69
2022/07/28 04:07:26;;;;;;;9.57;3.75;;;;;;;;;;5109507;28;20035;-69
2022/07/28 04:09:52;;;;;;;8.63;4.30;;;;;;;;;;5110902;28;20019;-68
2022/07/28 04:12:18;;;;;;;12.45;3.97;;;;;;;;;;5110842;28;20032;-68
2022/07/28 04:14:44;;;;;;;8.82;3.60;;;;;;;;;;5110665;28;20036;-69
2022/07/28 04:17:10;;;;;;;11.60;4.50;;;;;;;;;;5110516;28;20437;-69
2022/07/28 04:19:36;;;;;;;9.68;4.00;;;;;;;;;;5110744;28;20088;-68
2022/07/28 04:22:02;;;;;;;8.35;4.10;;;;;;;;;;5110395;28;20449;-69
2022/07/28 04:24:28;;;;;;;11.52;4.38;;;;;;;;;;5110703;28;20046;-68
2022/07/28 04:26:54;;;;;;;7.55;3.47;;;;;;;;;;5109261;28;20035;-69
2022/07/28 04:29:21;;;;;;;9.75;3.80;;;;;;;;;;5110351;28;20043;-68
2022/07/28 04:31:47;;;;;;;6.20;3.78;;;;;;;;;;5110640;28;20051;-67
2022/07/28 04:34:13;;;;;;;6.93;3.45;;;;;;;;;;5111076;28;20523;-68
2022/07/28 04:36:42;;;;;;;11.65;4.35;;;;;;;;;;5111972;28;20084;-68
2022/07/28 04:39:09;;;;;;;9.82;3.30;;;;;;;;;;5112248;28;20481;-68
2022/07/28 04:41:36;;;;;;;9.50;3.53;;;;;;;;;;5113073;28;20152;-67
2022/07/28 04:44:02;;;;;;;11.10;3.72;;;;;;;;;;5111977;28;20056;-68
2022/07/28 04:46:28;;;;;;;8.60;4.30;;;;;;;;;;5112707;28;20023;-68
2022/07/28 04:48:54;;;;;;;8.88;4.15;;;;;;;;;;5094961;28;20051;-68
2022/07/28 04:51:22;;;;;;;9.00;3.35;;;;;;;;;;5111446;28;20032;-68
2022/07/28 04:53:48;;;;;;;13.82;4.25;;;;;;;;;;5093824;28;20032;-69
2022/07/28 04:56:14;;;;;;;12.20;4.88;;;;;;;;;;5110943;28;20123;-68
2022/07/28 04:58:40;;;;;;;12.18;3.70;;;;;;;;;;5110444;28;20484;-68
2022/07/28 05:01:06;;;;;;;11.98;3.90;;;;;;;;;;5110511;28;20412;-69
2022/07/28 05:03:32;;;;;;;9.55;3.83;;;;;;;;;;5110541;28;20030;-69
2022/07/28 05:05:58;;;;;;;9.70;4.32;;;;;;;;;;5110161;28;20848;-69
2022/07/28 05:08:24;;;;;;;12.07;3.97;;;;;;;;;;5109882;28;20054;-70
2022/07/28 05:10:50;;;;;;;13.90;3.95;;;;;;;;;;5109918;28;20038;-69
2022/07/28 05:13:16;;;;;;;10.95;3.55;;;;;;;;;;5091781;28;20380;-68
2022/07/28 05:15:42;;;;;;;11.85;3.63;;;;;;;;;;5110320;28;20087;-69
2022/07/28 05:18:08;;;;;;;10.05;3.30;;;;;;;;;;5091660;28;20111;-68
2022/07/28 05:20:34;;;;;;;7.88;2.78;;;;;;;;;;5091583;28;20116;-69
2022/07/28 05:23:02;;;;;;;10.10;2.88;;;;;;;;;;5110207;28;20065;-68
2022/07/28 05:25:28;;;;;;;8.88;2.63;;;;;;;;;;5092333;28;20106;-69
2022/07/28 05:27:54;;;;;;;9.00;2.92;;;;;;;;;;5110460;28;20062;-69
2022/07/28 05:30:21;;;;;;;8.20;3.35;;;;;;;;;;5092775;28;20059;-68
2022/07/28 05:32:48;;;;;;;16.13;3.88;;;;;;;;;;5111540;28;20102;-69
2022/07/28 05:35:14;;;;;;;7.63;3.00;;;;;;;;;;5111588;28;20043;-68
2022/07/28 05:37:40;;;;;;;10.02;2.80;;;;;;;;;;5094083;28;20077;-69
2022/07/28 05:40:12;;;;;;;10.48;2.90;;;;;;;;;;5112250;28;20024;-68
2022/07/28 05:42:39;;;;;;;12.80;2.75;;;;;;;;;;5111497;28;20059;-68
2022/07/28 05:45:07;;;;;;;7.38;2.67;;;;;;;;;;5111048;28;20056;-68
2022/07/28 05:47:42;;;;;;;12.35;2.60;;;;;;;;;;5110999;28;20495;-69
2022/07/28 05:50:09;;;;;;;11.40;3.17;;;;;;;;;;5110029;28;20085;-68
2022/07/28 05:52:35;;;;;;;8.13;3.15;;;;;;;;;;5110031;28;20024;-69
2022/07/28 05:55:01;;;;;;;9.75;3.13;;;;;;;;;;5108757;28;20028;-68
2022/07/28 05:57:27;;;;;;;13.25;2.92;;;;;;;;;;5109985;28;20076;-67
2022/07/28 05:59:53;;;;;;;12.80;3.08;;;;;;;;;;5091271;28;20392;-68
2022/07/28 06:02:19;;;;;;;9.13;2.70;;;;;;;;;;5091801;28;20465;-68
2022/07/28 06:04:45;;;;;;;18.10;3.13;;;;;;;;;;5112818;28;20087;-67
2022/07/28 06:07:11;;;;;;;10.00;2.90;;;;;;;;;;5095270;28;20027;-67
2022/07/28 06:09:37;;;;;;;11.57;2.60;;;;;;;;;;5113382;28;20108;-68
2022/07/28 06:12:04;;;;;;;5.10;2.88;;;;;;;;;;5113187;28;20467;-67
2022/07/28 06:14:30;;;;;;;12.23;3.40;;;;;;;;;;5113479;28;20024;-68
2022/07/28 06:16:56;;;;;;;9.55;2.80;;;;;;;;;;5094832;28;20434;-67
2022/07/28 06:19:22;;;;;;;6.32;2.50;;;;;;;;;;5094981;28;20504;-68
2022/07/28 06:21:51;;;;;;;10.63;2.97;;;;;;;;;;5113774;28;20068;-68
2022/07/28 06:24:17;;;;;;;17.08;3.10;;;;;;;;;;5114482;28;20028;-67
2022/07/28 06:26:43;;;;;;;6.80;2.30;;;;;;;;;;5096186;28;20039;-67
2022/07/28 06:29:09;;;;;;;8.27;2.38;;;;;;;;;;5114640;28;20034;-67
2022/07/28 06:31:35;;;;;;;10.93;2.70;;;;;;;;;;5097230;28;20019;-67
2022/07/28 06:34:01;;;;;;;14.35;2.65;;;;;;;;;;5114764;28;20038;-69
2022/07/28 06:36:27;;;;;;;10.68;2.58;;;;;;;;;;5114606;28;20088;-67
2022/07/28 06:38:54;;;;;;;6.95;2.47;;;;;;;;;;5113711;28;20106;-69
2022/07/28 06:41:20;;;;;;;11.70;2.38;;;;;;;;;;5113160;28;20481;-69
2022/07/28 06:43:46;;;;;;;10.50;2.10;;;;;;;;;;5112163;28;20101;-69
2022/07/28 06:46:17;;;;;;;11.55;2.60;;;;;;;;;;5112430;28;20520;-69
2022/07/28 06:48:44;;;;;;;7.85;2.03;;;;;;;;;;5094045;28;20449;-69
2022/07/28 06:51:11;;;;;;;9.00;1.98;;;;;;;;;;5112227;28;20114;-67
2022/07/28 06:53:37;;;;;;;28.75;2.15;;;;;;;;;;5112191;28;20023;-68
2022/07/28 06:56:06;;;;;;;6.82;2.38;;;;;;;;;;5112168;28;20024;-67
2022/07/28 06:58:32;;;;;;;8.88;2.08;;;;;;;;;;5112135;28;20024;-68
2022/07/28 07:00:58;;;;;;;9.70;2.78;;;;;;;;;;5112057;28;20046;-68
2022/07/28 07:03:24;;;;;;;4.25;1.52;;;;;;;;;;5094025;28;20035;-68
2022/07/28 07:05:50;;;;;;;7.78;1.83;;;;;;;;;;5112152;28;20042;-68
2022/07/28 07:08:16;;;;;;;4.22;1.95;;;;;;;;;;5112156;28;20030;-68
2022/07/28 07:10:42;;;;;;;6.60;1.85;;;;;;;;;;5112405;28;20015;-68
2022/07/28 07:13:08;;;;;;;9.65;1.70;;;;;;;;;;5112596;28;20028;-68
2022/07/28 07:15:34;;;;;;;8.75;1.45;;;;;;;;;;5112599;28;20131;-69
2022/07/28 07:18:00;;;;;;;8.32;1.65;;;;;;;;;;5113629;28;20023;-68
2022/07/28 07:20:27;;;;;;;6.25;1.70;;;;;;;;;;5114018;28;20035;-69
2022/07/28 07:22:54;;;;;;;6.95;1.50;;;;;;;;;;5115980;28;20044;-68
2022/07/28 07:25:20;;;;;;;10.50;1.60;;;;;;;;;;5115562;28;20437;-69
2022/07/28 07:27:46;;;;;;;8.65;1.50;;;;;;;;;;5114032;28;20031;-68
2022/07/28 07:30:13;;;;;;;8.73;1.63;;;;;;;;;;5114580;28;20063;-69
2022/07/28 07:32:40;;;;;;;5.10;1.33;;;;;;;;;;5114789;28;20031;-68
2022/07/28 07:35:06;;;;;;;5.38;1.38;;;;;;;;;;5113993;28;20034;-69
2022/07/28 07:37:32;;;;;;;6.43;1.30;;;;;;;;;;5113213;28;20070;-69
2022/07/28 07:40:01;;;;;;;5.60;1.30;;;;;;;;;;5093904;28;20024;-69
2022/07/28 07:42:27;;;;;;;6.53;1.25;;;;;;;;;;5111516;28;20042;-70
2022/07/28 07:44:54;;;;;;;3.45;1.40;;;;;;;;;;5111290;28;20087;-68
2022/07/28 07:47:19;;;;;;;17.60;1.60;;;;;;;;;;5111366;28;20035;-68
2022/07/28 07:49:46;;;;;;;6.03;1.17;;;;;;;;;;5110917;28;20024;-68
2022/07/28 07:52:12;;;;;;;4.47;1.38;;;;;;;;;;5111382;28;20035;-69
2022/07/28 07:54:38;;;;;;;4.90;1.50;;;;;;;;;;5111380;28;20028;-68
2022/07/28 07:57:04;;;;;;;7.32;1.55;;;;;;;;;;5092971;28;20039;-69
2022/07/28 07:59:30;;;;;;;5.07;1.73;;;;;;;;;;5109831;28;20062;-69
2022/07/28 08:01:56;;;;;;;6.18;1.38;;;;;;;;;;5111259;28;20031;-67
2022/07/28 08:04:23;;;;;;;3.72;1.30;;;;;;;;;;5110840;28;20034;-69
2022/07/28 08:06:52;;;;;;;8.60;1.55;;;;;;;;;;5110816;28;20055;-68
2022/07/28 08:09:19;;;;;;;5.30;1.40;;;;;;;;;;5111134;28;20071;-68
2022/07/28 08:11:45;;;;;;;7.05;1.60;;;;;;;;;;5110990;28;20027;-69
2022/07/28 08:14:11;;;;;;;4.53;1.30;;;;;;;;;;5111789;28;20672;-69
2022/07/28 08:16:37;;;;;;;5.90;1.40;;;;;;;;;;5112030;28;20056;-69
2022/07/28 08:19:03;;;;;;;3.20;1.10;;;;;;;;;;5111838;28;20108;-69
2022/07/28 08:21:29;;;;;;;5.28;1.20;;;;;;;;;;5094723;28;20108;-70
2022/07/28 08:23:56;;;;;;;6.45;1.23;;;;;;;;;;5114237;28;20032;-68
2022/07/28 08:26:22;;;;;;;6.90;1.40;;;;;;;;;;5112816;28;20023;-70
2022/07/28 08:28:48;;;;;;;7.40;1.30;;;;;;;;;;5113930;28;20114;-67
2022/07/28 08:31:16;;;;;;;10.80;1.67;;;;;;;;;;5096536;28;20023;-68
2022/07/28 08:33:43;;;;;;;5.18;1.20;;;;;;;;;;5114420;28;20031;-69
2022/07/28 08:36:09;;;;;;;7.55;1.10;;;;;;;;;;5113077;28;20125;-68
2022/07/28 08:38:35;;;;;;;3.65;1.52;;;;;;;;;;5112132;28;20032;-69
2022/07/28 08:41:02;;;;;;;6.63;1.00;;;;;;;;;;5092588;28;20031;-69
2022/07/28 08:43:31;;;;;;;4.18;1.10;;;;;;;;;;5111247;28;20611;-69
2022/07/28 08:46:00;;;;;;;20.48;1.95;;;;;;;;;;5110574;28;20043;-69
2022/07/28 08:48:29;;;;;;;4.82;1.20;;;;;;;;;;5111028;28;20075;-69
2022/07/28 08:50:56;;;;;;;3.65;1.20;;;;;;;;;;5110635;28;20027;-69
2022/07/28 08:53:22;;;;;;;2.75;0.90;;;;;;;;;;5092227;28;20119;-70
2022/07/28 08:55:48;;;;;;;4.80;1.10;;;;;;;;;;5110389;28;20102;-69
2022/07/28 08:58:16;;;;;;;2.45;1.00;;;;;;;;;;5092412;28;20034;-69
2022/07/28 09:00:42;;;;;;;5.72;1.92;;;;;;;;;;5109832;28;20034;-70
2022/07/28 09:03:10;;;;;;;3.22;0.90;;;;;;;;;;5110561;28;20085;-68
2022/07/28 09:05:37;;;;;;;5.22;1.05;;;;;;;;;;5110702;28;20493;-68
2022/07/28 09:08:03;;;;;;;6.07;1.00;;;;;;;;;;5108956;28;20038;-68
2022/07/28 09:10:30;;;;;;;3.67;1.10;;;;;;;;;;5110037;28;20473;-67
2022/07/28 09:12:56;;;;;;;5.13;0.85;;;;;;;;;;5110722;28;20024;-68
2022/07/28 09:15:22;;;;;;;3.70;1.00;;;;;;;;;;5111424;28;20038;-67
2022/07/28 09:17:48;;;;;;;9.52;1.40;;;;;;;;;;5093959;28;20028;-69
2022/07/28 09:20:14;;;;;;;8.57;1.20;;;;;;;;;;5112610;28;20038;-68
2022/07/28 09:22:57;;;;;;;3.45;1.35;;;;;;;;;;5095140;28;20059;-68
2022/07/28 09:25:23;;;;;;;4.15;1.00;;;;;;;;;;5114320;28;20116;-70
2022/07/28 09:27:50;;;;;;;5.18;0.82;;;;;;;;;;5113918;28;20023;-71
2022/07/28 09:30:20;;;;;;;2.45;1.08;;;;;;;;;;5113250;28;20095;-68
2022/07/28 09:32:46;;;;;;;4.13;1.13;;;;;;;;;;5113805;28;20481;-67
2022/07/28 09:35:19;;;;;;;3.90;1.00;;;;;;;;;;5095235;28;20042;-69
2022/07/28 09:37:45;;;;;;;15.68;1.90;;;;;;;;;;5112607;28;20035;-68
2022/07/28 09:40:12;;;;;;;4.10;1.20;;;;;;;;;;5114112;28;20096;-69
2022/07/28 09:42:49;;;;;;;6.30;1.30;;;;;;;;;;5114195;28;20027;-69
2022/07/28 09:45:15;;;;;;;4.93;1.10;;;;;;;;;;5113964;28;20574;-69
2022/07/28 09:47:41;;;;;;;27.73;2.47;;;;;;;;;;5114229;28;20032;-69
2022/07/28 09:50:07;;;;;;;3.15;1.13;;;;;;;;;;5095964;28;20028;-69
2022/07/28 09:52:36;;;;;;;3.50;1.10;;;;;;;;;;5114147;28;20024;-69
2022/07/28 09:55:04;;;;;;;3.95;0.85;;;;;;;;;;5114283;28;20027;-69
2022/07/28 09:57:31;;;;;;;4.93;0.90;;;;;;;;;;5114293;28;20111;-69
2022/07/28 09:59:57;;;;;;;3.65;1.05;;;;;;;;;;5114048;28;20027;-69
2022/07/28 10:02:24;;;;;;;2.67;1.00;;;;;;;;;;5113941;28;20059;-70
2022/07/28 10:04:53;;;;;;;4.10;1.15;;;;;;;;;;5113883;28;20039;-67
2022/07/28 10:07:20;;;;;;;2.92;1.00;;;;;;;;;;5113840;28;20095;-69
2022/07/28 10:09:56;;;;;;;3.47;1.00;;;;;;;;;;5113937;28;20039;-69
2022/07/28 10:12:23;;;;;;;3.03;1.00;;;;;;;;;;5113509;28;20072;-70
2022/07/28 10:14:50;;;;;;;4.38;1.02;;;;;;;;;;5095680;28;20028;-69
2022/07/28 10:17:22;;;;;;;2.58;1.17;;;;;;;;;;5096509;28;20024;-68
2022/07/28 10:19:50;;;;;;;3.15;1.05;;;;;;;;;;5113850;28;20485;-68
2022/07/28 10:22:17;;;;;;;9.00;1.45;;;;;;;;;;5095221;28;20030;-69
2022/07/28 10:24:43;;;;;;;4.05;1.00;;;;;;;;;;5113890;28;20027;-68
2022/07/28 10:27:09;;;;;;;5.05;1.33;;;;;;;;;;5114600;28;20300;-68
2022/07/28 10:29:37;;;;;;;3.45;1.20;;;;;;;;;;5094953;28;20488;-70
2022/07/28 10:32:05;;;;;;;5.72;1.15;;;;;;;;;;5094966;28;20030;-68
2022/07/28 10:34:34;;;;;;;5.82;1.20;;;;;;;;;;5113516;28;20023;-68
2022/07/28 10:37:02;;;;;;;4.47;1.27;;;;;;;;;;5113537;28;20091;-68
2022/07/28 10:39:30;;;;;;;5.68;1.10;;;;;;;;;;5113228;28;20034;-68
2022/07/28 10:41:57;;;;;;;1.80;0.90;;;;;;;;;;5112770;28;20027;-69
2022/07/28 10:44:24;;;;;;;2.08;0.90;;;;;;;;;;5112542;28;20048;-69
2022/07/28 10:46:50;;;;;;;7.32;1.30;;;;;;;;;;5112503;28;20028;-71
2022/07/28 10:49:16;;;;;;;5.68;1.20;;;;;;;;;;5093990;28;20028;-69
2022/07/28 10:51:44;;;;;;;3.70;0.90;;;;;;;;;;5112383;28;20020;-70
2022/07/28 10:54:14;;;;;;;3.20;1.10;;;;;;;;;;5112785;28;20024;-70
2022/07/28 10:56:46;;;;;;;4.68;1.25;;;;;;;;;;5112464;28;20023;-69
2022/07/28 10:59:18;;;;;;;2.53;1.10;;;;;;;;;;5112399;28;20099;-69
2022/07/28 11:01:43;;;;;;;13.90;1.30;;;;;;;;;;5112298;28;20177;-69
2022/07/28 11:04:29;;;;;;;3.08;1.17;;;;;;;;;;5112742;28;20122;-69
2022/07/28 11:07:09;;;;;;;2.80;1.20;;;;;;;;;;5112564;28;20016;-70
2022/07/28 11:09:35;;;;;;;5.85;1.30;;;;;;;;;;5112445;28;20031;-70
2022/07/28 11:12:01;;;;;;;9.07;1.40;;;;;;;;;;5094092;28;20019;-68
2022/07/28 11:14:32;;;;;;;5.43;1.27;;;;;;;;;;5094715;28;20411;-70
2022/07/28 11:17:04;;;;;;;17.00;1.88;;;;;;;;;;5112751;28;20094;-69
2022/07/28 11:19:42;;;;;;;3.72;0.90;;;;;;;;;;5110489;28;20039;-69
2022/07/28 11:22:15;;;;;;;3.83;1.17;;;;;;;;;;5112957;28;20058;-70
2022/07/28 11:25:03;;;;;;;9.18;1.00;;;;;;;;;;5113224;28;20035;-69
2022/07/28 11:27:42;;;;;;;6.53;1.05;;;;;;;;;;5114890;28;20512;-70
2022/07/28 11:30:31;;;;;;;3.95;1.30;;;;;;;;;;5115113;28;20079;-70
2022/07/28 11:32:57;;;;;;;4.22;1.10;;;;;;;;;;5112259;28;20034;-69
2022/07/28 11:35:24;;;;;;;3.80;1.00;;;;;;;;;;5112173;28;20027;-69
2022/07/28 11:38:02;;;;;;;2.40;1.08;;;;;;;;;;5111678;28;20048;-69
2022/07/28 11:40:38;;;;;;;2.97;1.10;;;;;;;;;;5112169;28;20169;-70
2022/07/28 11:43:23;;;;;;;4.30;0.85;;;;;;;;;;5111695;28;20081;-69
2022/07/28 11:45:52;;;;;;;3.53;0.88;;;;;;;;;;5111174;28;20059;-67
2022/07/28 11:48:22;;;;;;;4.53;1.70;;;;;;;;;;5111269;28;20058;-70
2022/07/28 11:51:03;;;;;;;4.28;1.05;;;;;;;;;;5110970;28;20024;-69
2022/07/28 11:53:34;;;;;;;3.70;1.10;;;;;;;;;;5111107;28;20110;-70
2022/07/28 11:56:02;;;;;;;6.38;1.65;;;;;;;;;;5111199;28;20397;-69
2022/07/28 11:58:28;;;;;;;3.97;1.02;;;;;;;;;;5111149;28;20023;-69
2022/07/28 12:01:13;;;;;;;3.50;1.30;;;;;;;;;;5110210;28;20031;-69
2022/07/28 12:03:40;;;;;;;2.13;0.70;;;;;;;;;;5110876;28;20047;-69
2022/07/28 12:06:07;;;;;;;4.10;0.80;;;;;;;;;;5110894;28;20485;-68
2022/07/28 12:09:09;;;;;;;3.95;0.90;;;;;;;;;;5110880;28;20043;-67
2022/07/28 12:11:36;;;;;;;7.50;1.50;;;;;;;;;;5027837;28;20021;-69
2022/07/28 12:14:05;;;;;;;4.25;1.00;;;;;;;;;;5094738;28;20036;-69
2022/07/28 12:16:32;;;;;;;2.95;0.80;;;;;;;;;;5092353;28;20426;-70
2022/07/28 12:18:59;;;;;;;3.25;0.95;;;;;;;;;;5110859;28;20503;-70
2022/07/28 12:21:41;;;;;;;9.15;1.10;;;;;;;;;;5110940;28;20031;-69
2022/07/28 12:24:08;;;;;;;7.15;1.13;;;;;;;;;;5110952;28;20028;-69
2022/07/28 12:26:35;;;;;;;2.80;0.90;;;;;;;;;;5111156;28;20032;-70
2022/07/28 12:29:02;;;;;;;2.20;0.75;;;;;;;;;;5111890;28;20024;-70
2022/07/28 12:31:31;;;;;;;4.65;1.10;;;;;;;;;;5112639;28;20016;-70
2022/07/28 12:33:57;;;;;;;7.38;1.00;;;;;;;;;;5113541;28;20106;-69
2022/07/28 12:36:24;;;;;;;2.13;0.90;;;;;;;;;;5112698;28;20024;-70
2022/07/28 12:38:51;;;;;;;6.15;1.10;;;;;;;;;;5113054;28;20031;-69
2022/07/28 12:41:17;;;;;;;10.93;1.30;;;;;;;;;;5111957;28;20028;-70
2022/07/28 12:43:53;;;;;;;10.43;1.33;;;;;;;;;;5110780;28;20176;-69
2022/07/28 12:46:21;;;;;;;2.90;1.10;;;;;;;;;;5094467;28;20111;-69
2022/07/28 12:48:48;;;;;;;5.85;1.15;;;;;;;;;;5112146;28;20030;-69
2022/07/28 12:51:32;;;;;;;4.70;0.90;;;;;;;;;;5111188;28;20504;-69
2022/07/28 12:53:58;;;;;;;2.95;1.50;;;;;;;;;;5111680;28;20021;-69
2022/07/28 12:56:24;;;;;;;9.98;1.27;;;;;;;;;;5112307;28;20028;-69
2022/07/28 12:59:04;;;;;;;7.85;1.30;;;;;;;;;;5111415;28;20035;-70
2022/07/28 13:01:46;;;;;;;2.05;0.80;;;;;;;;;;5111589;28;20019;-70
2022/07/28 13:04:12;;;;;;;3.25;0.93;;;;;;;;;;5111419;28;20024;-67
2022/07/28 13:06:39;;;;;;;2.33;0.90;;;;;;;;;;5112196;28;20023;-69
2022/07/28 13:09:06;;;;;;;3.85;1.10;;;;;;;;;;5113988;28;20020;-70
2022/07/28 13:11:32;;;;;;;4.65;1.10;;;;;;;;;;5111006;28;20020;-69
2022/07/28 13:13:58;;;;;;;6.97;1.00;;;;;;;;;;5096030;28;20071;-69
2022/07/28 13:16:25;;;;;;;3.28;1.42;;;;;;;;;;5097546;28;20100;-69
2022/07/28 13:18:53;;;;;;;5.10;1.20;;;;;;;;;;5114607;28;20100;-69
2022/07/28 13:21:40;;;;;;;3.35;0.90;;;;;;;;;;5114486;28;20020;-69
2022/07/28 13:24:06;;;;;;;4.47;1.00;;;;;;;;;;5114399;28;20094;-69
2022/07/28 13:26:32;;;;;;;2.83;1.10;;;;;;;;;;5114296;28;20035;-68
2022/07/28 13:29:01;;;;;;;6.72;1.40;;;;;;;;;;5112966;28;20034;-69
2022/07/28 13:31:27;;;;;;;6.38;1.20;;;;;;;;;;5113769;28;20019;-69
2022/07/28 13:33:53;;;;;;;4.25;1.17;;;;;;;;;;5113644;28;20354;-70
2022/07/28 13:36:19;;;;;;;4.20;1.38;;;;;;;;;;5113877;28;20165;-70
2022/07/28 13:38:45;;;;;;;4.30;1.23;;;;;;;;;;5112430;27;20516;-68
2022/07/28 13:41:11;;;;;;;5.13;0.93;;;;;;;;;;5113847;28;20035;-69
2022/07/28 13:43:38;;;;;;;4.28;1.27;;;;;;;;;;5112469;28;20027;-69
2022/07/28 13:46:04;;;;;;;8.63;1.00;;;;;;;;;;5113527;28;20105;-69
2022/07/28 13:48:31;;;;;;;2.72;0.95;;;;;;;;;;5113695;28;20107;-69
2022/07/28 13:50:57;;;;;;;3.88;1.20;;;;;;;;;;5113626;28;20028;-70
2022/07/28 13:53:23;;;;;;;5.32;1.23;;;;;;;;;;5095578;28;20484;-69
2022/07/28 13:55:51;;;;;;;6.68;1.52;;;;;;;;;;5114069;28;20034;-67
2022/07/28 13:58:17;;;;;;;3.72;1.00;;;;;;;;;;5114199;28;20085;-69
2022/07/28 14:00:43;;;;;;;7.40;1.27;;;;;;;;;;5114300;28;20031;-69
2022/07/28 14:03:09;;;;;;;3.47;1.20;;;;;;;;;;5114889;28;20038;-69
2022/07/28 14:05:35;;;;;;;2.67;1.30;;;;;;;;;;5114512;28;20094;-70
2022/07/28 14:08:01;;;;;;;4.43;1.20;;;;;;;;;;5114836;28;20024;-70
2022/07/28 14:10:27;;;;;;;8.13;1.60;;;;;;;;;;5115399;28;20030;-69
2022/07/28 14:12:53;;;;;;;4.38;1.20;;;;;;;;;;5096211;28;20062;-69
2022/07/28 14:15:19;;;;;;;4.10;1.10;;;;;;;;;;5114259;28;20036;-70
2022/07/28 14:17:45;;;;;;;6.57;1.30;;;;;;;;;;5115291;28;20035;-70
2022/07/28 14:20:15;;;;;;;6.07;1.40;;;;;;;;;;5116384;28;20023;-70
2022/07/28 14:22:42;;;;;;;5.27;1.40;;;;;;;;;;5114601;28;20028;-69
2022/07/28 14:25:08;;;;;;;4.82;1.08;;;;;;;;;;5095821;28;20294;-68
2022/07/28 14:27:34;;;;;;;3.35;1.02;;;;;;;;;;5115346;28;20521;-70
2022/07/28 14:30:00;;;;;;;4.47;1.40;;;;;;;;;;5113765;28;20026;-70
2022/07/28 14:32:26;;;;;;;5.32;1.25;;;;;;;;;;5094550;28;20173;-70
2022/07/28 14:34:52;;;;;;;8.70;1.30;;;;;;;;;;5112761;28;20077;-70
2022/07/28 14:37:18;;;;;;;8.80;2.05;;;;;;;;;;5112951;28;20039;-70
2022/07/28 14:39:44;;;;;;;4.30;1.15;;;;;;;;;;5094652;28;20036;-70
2022/07/28 14:42:10;;;;;;;2.65;1.00;;;;;;;;;;5113025;28;20080;-70
2022/07/28 14:44:36;;;;;;;7.60;1.50;;;;;;;;;;5112237;28;20201;-68
2022/07/28 14:47:03;;;;;;;4.18;1.00;;;;;;;;;;5112964;28;20099;-70